sensor_id;sensor_type;location;lat;lon;timestamp;P1;durP1;ratioP1;P2;durP2;ratioP2
69837;SDS011;57135;51.992;4.476;2023-04-25T00:01:20;9.84;;;7.69;;
69837;SDS011;57135;51.992;4.476;2023-04-25T00:03:47;9.60;;;7.52;;
69837;SDS011;57135;51.992;4.476;2023-04-25T00:06:12;9.37;;;7.35;;
69837;SDS011;57135;51.992;4.476;2023-04-25T00:08:38;9.04;;;7.22;;
69837;SDS011;57135;51.992;4.476;2023-04-25T00:11:04;8.01;;;6.67;;
69837;SDS011;57135;51.992;4.476;2023-04-25T00:13:30;8.26;;;6.88;;
69837;SDS011;57135;51.992;4.476;2023-04-25T00:15:55;9.04;;;7.20;;
69837;SDS011;57135;51.992;4.476;2023-04-25T00:18:25;9.09;;;7.08;;
69837;SDS011;57135;51.992;4.476;2023-04-25T00:20:53;8.93;;;6.89;;
69837;SDS011;57135;51.992;4.476;2023-04-25T00:23:19;9.08;;;7.06;;
69837;SDS011;57135;51.992;4.476;2023-04-25T00:25:45;8.54;;;6.79;;
69837;SDS011;57135;51.992;4.476;2023-04-25T00:28:11;8.56;;;6.85;;
69837;SDS011;57135;51.992;4.476;2023-04-25T00:30:38;7.43;;;6.09;;
69837;SDS011;57135;51.992;4.476;2023-04-25T00:33:03;7.74;;;6.24;;
69837;SDS011;57135;51.992;4.476;2023-04-25T00:35:29;8.02;;;6.35;;
69837;SDS011;57135;51.992;4.476;2023-04-25T00:37:54;7.56;;;6.13;;
69837;SDS011;57135;51.992;4.476;2023-04-25T00:40:20;7.85;;;6.25;;
69837;SDS011;57135;51.992;4.476;2023-04-25T00:42:46;7.65;;;6.03;;
69837;SDS011;57135;51.992;4.476;2023-04-25T00:45:13;8.25;;;6.42;;
69837;SDS011;57135;51.992;4.476;2023-04-25T00:47:40;7.68;;;6.04;;
69837;SDS011;57135;51.992;4.476;2023-04-25T00:50:06;7.39;;;5.98;;
69837;SDS011;57135;51.992;4.476;2023-04-25T00:52:32;7.82;;;6.27;;
69837;SDS011;57135;51.992;4.476;2023-04-25T00:54:58;8.19;;;6.44;;
69837;SDS011;57135;51.992;4.476;2023-04-25T00:57:23;7.72;;;6.15;;
69837;SDS011;57135;51.992;4.476;2023-04-25T00:59:51;7.25;;;6.00;;
69837;SDS011;57135;51.992;4.476;2023-04-25T01:02:17;7.06;;;5.71;;
69837;SDS011;57135;51.992;4.476;2023-04-25T01:04:43;7.22;;;5.68;;
69837;SDS011;57135;51.992;4.476;2023-04-25T01:07:09;7.48;;;5.83;;
69837;SDS011;57135;51.992;4.476;2023-04-25T01:09:35;7.17;;;5.68;;
69837;SDS011;57135;51.992;4.476;2023-04-25T01:12:00;7.24;;;5.84;;
69837;SDS011;57135;51.992;4.476;2023-04-25T01:14:26;6.79;;;5.53;;
69837;SDS011;57135;51.992;4.476;2023-04-25T01:16:52;7.42;;;5.85;;
69837;SDS011;57135;51.992;4.476;2023-04-25T01:19:18;6.97;;;5.62;;
69837;SDS011;57135;51.992;4.476;2023-04-25T01:21:44;7.02;;;5.66;;
69837;SDS011;57135;51.992;4.476;2023-04-25T01:24:10;6.71;;;5.47;;
69837;SDS011;57135;51.992;4.476;2023-04-25T01:26:36;5.84;;;4.95;;
69837;SDS011;57135;51.992;4.476;2023-04-25T01:29:03;6.68;;;5.61;;
69837;SDS011;57135;51.992;4.476;2023-04-25T01:31:29;6.67;;;5.46;;
69837;SDS011;57135;51.992;4.476;2023-04-25T01:33:55;6.83;;;5.51;;
69837;SDS011;57135;51.992;4.476;2023-04-25T01:36:21;7.17;;;5.74;;
69837;SDS011;57135;51.992;4.476;2023-04-25T01:38:47;7.10;;;5.81;;
69837;SDS011;57135;51.992;4.476;2023-04-25T01:41:13;6.05;;;5.03;;
69837;SDS011;57135;51.992;4.476;2023-04-25T01:43:39;6.99;;;5.70;;
69837;SDS011;57135;51.992;4.476;2023-04-25T01:46:05;7.10;;;5.74;;
69837;SDS011;57135;51.992;4.476;2023-04-25T01:48:31;6.28;;;5.23;;
69837;SDS011;57135;51.992;4.476;2023-04-25T01:50:57;6.36;;;5.36;;
69837;SDS011;57135;51.992;4.476;2023-04-25T01:53:23;6.30;;;5.18;;
69837;SDS011;57135;51.992;4.476;2023-04-25T01:55:49;6.53;;;5.39;;
69837;SDS011;57135;51.992;4.476;2023-04-25T01:58:14;5.99;;;5.07;;
69837;SDS011;57135;51.992;4.476;2023-04-25T02:00:40;6.73;;;5.61;;
69837;SDS011;57135;51.992;4.476;2023-04-25T02:03:06;6.12;;;5.09;;
69837;SDS011;57135;51.992;4.476;2023-04-25T02:05:35;6.12;;;5.08;;
69837;SDS011;57135;51.992;4.476;2023-04-25T02:08:02;6.47;;;5.24;;
69837;SDS011;57135;51.992;4.476;2023-04-25T02:10:28;6.87;;;5.42;;
69837;SDS011;57135;51.992;4.476;2023-04-25T02:12:54;6.85;;;5.39;;
69837;SDS011;57135;51.992;4.476;2023-04-25T02:15:19;6.95;;;5.60;;
69837;SDS011;57135;51.992;4.476;2023-04-25T02:17:45;5.90;;;4.93;;
69837;SDS011;57135;51.992;4.476;2023-04-25T02:20:11;6.08;;;5.06;;
69837;SDS011;57135;51.992;4.476;2023-04-25T02:22:36;6.31;;;5.21;;
69837;SDS011;57135;51.992;4.476;2023-04-25T02:25:02;6.40;;;5.23;;
69837;SDS011;57135;51.992;4.476;2023-04-25T02:27:29;5.30;;;4.34;;
69837;SDS011;57135;51.992;4.476;2023-04-25T02:29:55;6.04;;;4.84;;
69837;SDS011;57135;51.992;4.476;2023-04-25T02:32:21;5.47;;;4.52;;
69837;SDS011;57135;51.992;4.476;2023-04-25T02:34:46;5.99;;;4.94;;
69837;SDS011;57135;51.992;4.476;2023-04-25T02:37:13;5.78;;;4.72;;
69837;SDS011;57135;51.992;4.476;2023-04-25T02:39:38;5.55;;;4.49;;
69837;SDS011;57135;51.992;4.476;2023-04-25T02:42:04;5.51;;;4.56;;
69837;SDS011;57135;51.992;4.476;2023-04-25T02:44:29;5.09;;;4.20;;
69837;SDS011;57135;51.992;4.476;2023-04-25T02:46:55;5.72;;;4.57;;
69837;SDS011;57135;51.992;4.476;2023-04-25T02:49:20;5.72;;;4.65;;
69837;SDS011;57135;51.992;4.476;2023-04-25T02:51:46;5.18;;;4.30;;
69837;SDS011;57135;51.992;4.476;2023-04-25T02:54:11;5.61;;;4.68;;
69837;SDS011;57135;51.992;4.476;2023-04-25T02:56:36;5.23;;;4.39;;
69837;SDS011;57135;51.992;4.476;2023-04-25T02:59:02;5.81;;;4.68;;
69837;SDS011;57135;51.992;4.476;2023-04-25T03:01:27;5.76;;;4.66;;
69837;SDS011;57135;51.992;4.476;2023-04-25T03:03:53;6.21;;;4.81;;
69837;SDS011;57135;51.992;4.476;2023-04-25T03:06:18;5.75;;;4.39;;
69837;SDS011;57135;51.992;4.476;2023-04-25T03:08:44;6.07;;;4.65;;
69837;SDS011;57135;51.992;4.476;2023-04-25T03:11:09;5.59;;;4.40;;
69837;SDS011;57135;51.992;4.476;2023-04-25T03:13:35;5.06;;;4.08;;
69837;SDS011;57135;51.992;4.476;2023-04-25T03:16:00;4.52;;;3.65;;
69837;SDS011;57135;51.992;4.476;2023-04-25T03:18:26;4.75;;;3.81;;
69837;SDS011;57135;51.992;4.476;2023-04-25T03:20:51;4.68;;;3.78;;
69837;SDS011;57135;51.992;4.476;2023-04-25T03:23:17;4.66;;;3.81;;
69837;SDS011;57135;51.992;4.476;2023-04-25T03:25:42;4.66;;;3.78;;
69837;SDS011;57135;51.992;4.476;2023-04-25T03:28:08;4.63;;;3.79;;
69837;SDS011;57135;51.992;4.476;2023-04-25T03:30:33;4.85;;;3.95;;
69837;SDS011;57135;51.992;4.476;2023-04-25T03:32:59;4.63;;;3.73;;
69837;SDS011;57135;51.992;4.476;2023-04-25T03:35:24;5.22;;;4.10;;
69837;SDS011;57135;51.992;4.476;2023-04-25T03:37:50;4.83;;;3.82;;
69837;SDS011;57135;51.992;4.476;2023-04-25T03:40:15;5.25;;;4.19;;
69837;SDS011;57135;51.992;4.476;2023-04-25T03:42:40;5.24;;;4.19;;
69837;SDS011;57135;51.992;4.476;2023-04-25T03:45:06;4.95;;;3.88;;
69837;SDS011;57135;51.992;4.476;2023-04-25T03:47:32;5.34;;;4.13;;
69837;SDS011;57135;51.992;4.476;2023-04-25T03:49:58;5.75;;;4.34;;
69837;SDS011;57135;51.992;4.476;2023-04-25T03:52:25;5.33;;;4.00;;
69837;SDS011;57135;51.992;4.476;2023-04-25T03:54:51;5.64;;;4.18;;
69837;SDS011;57135;51.992;4.476;2023-04-25T03:57:16;5.69;;;4.19;;
69837;SDS011;57135;51.992;4.476;2023-04-25T03:59:41;5.74;;;4.27;;
69837;SDS011;57135;51.992;4.476;2023-04-25T04:02:07;5.68;;;4.23;;
69837;SDS011;57135;51.992;4.476;2023-04-25T04:04:32;6.49;;;4.67;;
69837;SDS011;57135;51.992;4.476;2023-04-25T04:06:58;6.84;;;4.81;;
69837;SDS011;57135;51.992;4.476;2023-04-25T04:09:23;6.48;;;4.64;;
69837;SDS011;57135;51.992;4.476;2023-04-25T04:11:49;6.01;;;4.41;;
69837;SDS011;57135;51.992;4.476;2023-04-25T04:14:14;5.86;;;4.32;;
69837;SDS011;57135;51.992;4.476;2023-04-25T04:16:40;5.96;;;4.31;;
69837;SDS011;57135;51.992;4.476;2023-04-25T04:19:05;5.94;;;4.31;;
69837;SDS011;57135;51.992;4.476;2023-04-25T04:21:31;5.87;;;4.25;;
69837;SDS011;57135;51.992;4.476;2023-04-25T04:23:57;6.08;;;4.42;;
69837;SDS011;57135;51.992;4.476;2023-04-25T04:26:23;5.15;;;3.90;;
69837;SDS011;57135;51.992;4.476;2023-04-25T04:28:51;5.45;;;4.12;;
69837;SDS011;57135;51.992;4.476;2023-04-25T04:31:19;5.28;;;4.00;;
69837;SDS011;57135;51.992;4.476;2023-04-25T04:33:45;5.28;;;3.94;;
69837;SDS011;57135;51.992;4.476;2023-04-25T04:36:11;5.69;;;4.12;;
69837;SDS011;57135;51.992;4.476;2023-04-25T04:38:37;5.51;;;4.01;;
69837;SDS011;57135;51.992;4.476;2023-04-25T04:41:02;5.22;;;3.86;;
69837;SDS011;57135;51.992;4.476;2023-04-25T04:43:28;5.34;;;3.91;;
69837;SDS011;57135;51.992;4.476;2023-04-25T04:45:54;5.49;;;4.03;;
69837;SDS011;57135;51.992;4.476;2023-04-25T04:48:21;6.22;;;4.67;;
69837;SDS011;57135;51.992;4.476;2023-04-25T04:50:47;5.90;;;4.75;;
69837;SDS011;57135;51.992;4.476;2023-04-25T04:53:13;4.81;;;3.87;;
69837;SDS011;57135;51.992;4.476;2023-04-25T04:55:38;5.00;;;3.91;;
69837;SDS011;57135;51.992;4.476;2023-04-25T04:58:06;5.61;;;4.21;;
69837;SDS011;57135;51.992;4.476;2023-04-25T05:00:32;5.46;;;4.09;;
69837;SDS011;57135;51.992;4.476;2023-04-25T05:02:58;5.97;;;4.35;;
69837;SDS011;57135;51.992;4.476;2023-04-25T05:05:24;5.48;;;4.06;;
69837;SDS011;57135;51.992;4.476;2023-04-25T05:07:49;5.44;;;4.04;;
69837;SDS011;57135;51.992;4.476;2023-04-25T05:10:16;5.82;;;4.32;;
69837;SDS011;57135;51.992;4.476;2023-04-25T05:12:43;5.82;;;4.34;;
69837;SDS011;57135;51.992;4.476;2023-04-25T05:15:09;5.31;;;4.02;;
69837;SDS011;57135;51.992;4.476;2023-04-25T05:17:35;5.65;;;4.34;;
69837;SDS011;57135;51.992;4.476;2023-04-25T05:20:00;6.01;;;4.62;;
69837;SDS011;57135;51.992;4.476;2023-04-25T05:22:26;5.37;;;4.19;;
69837;SDS011;57135;51.992;4.476;2023-04-25T05:24:52;5.02;;;4.00;;
69837;SDS011;57135;51.992;4.476;2023-04-25T05:27:17;5.37;;;4.21;;
69837;SDS011;57135;51.992;4.476;2023-04-25T05:29:43;5.81;;;4.41;;
69837;SDS011;57135;51.992;4.476;2023-04-25T05:32:09;6.11;;;4.62;;
69837;SDS011;57135;51.992;4.476;2023-04-25T05:34:35;6.06;;;4.57;;
69837;SDS011;57135;51.992;4.476;2023-04-25T05:37:00;5.87;;;4.45;;
69837;SDS011;57135;51.992;4.476;2023-04-25T05:39:25;4.88;;;3.77;;
69837;SDS011;57135;51.992;4.476;2023-04-25T05:41:51;5.22;;;3.95;;
69837;SDS011;57135;51.992;4.476;2023-04-25T05:44:17;4.75;;;3.57;;
69837;SDS011;57135;51.992;4.476;2023-04-25T05:46:43;4.71;;;3.56;;
69837;SDS011;57135;51.992;4.476;2023-04-25T05:49:08;4.48;;;3.43;;
69837;SDS011;57135;51.992;4.476;2023-04-25T05:51:34;3.92;;;3.09;;
69837;SDS011;57135;51.992;4.476;2023-04-25T05:53:59;3.93;;;3.15;;
69837;SDS011;57135;51.992;4.476;2023-04-25T05:56:25;3.94;;;3.12;;
69837;SDS011;57135;51.992;4.476;2023-04-25T05:58:50;3.66;;;2.93;;
69837;SDS011;57135;51.992;4.476;2023-04-25T06:01:16;3.66;;;2.91;;
69837;SDS011;57135;51.992;4.476;2023-04-25T06:03:41;3.21;;;2.58;;
69837;SDS011;57135;51.992;4.476;2023-04-25T06:06:11;2.84;;;2.33;;
69837;SDS011;57135;51.992;4.476;2023-04-25T06:08:36;2.81;;;2.39;;
69837;SDS011;57135;51.992;4.476;2023-04-25T06:11:03;2.46;;;2.13;;
69837;SDS011;57135;51.992;4.476;2023-04-25T06:13:29;3.21;;;2.79;;
69837;SDS011;57135;51.992;4.476;2023-04-25T06:15:55;2.99;;;2.53;;
69837;SDS011;57135;51.992;4.476;2023-04-25T06:18:20;3.18;;;2.64;;
69837;SDS011;57135;51.992;4.476;2023-04-25T06:20:46;3.10;;;2.59;;
69837;SDS011;57135;51.992;4.476;2023-04-25T06:23:11;3.50;;;2.94;;
69837;SDS011;57135;51.992;4.476;2023-04-25T06:25:36;3.19;;;2.72;;
69837;SDS011;57135;51.992;4.476;2023-04-25T06:28:02;2.72;;;2.36;;
69837;SDS011;57135;51.992;4.476;2023-04-25T06:30:27;2.59;;;2.34;;
69837;SDS011;57135;51.992;4.476;2023-04-25T06:32:53;2.37;;;2.18;;
69837;SDS011;57135;51.992;4.476;2023-04-25T06:35:18;2.29;;;2.09;;
69837;SDS011;57135;51.992;4.476;2023-04-25T06:37:44;2.55;;;2.32;;
69837;SDS011;57135;51.992;4.476;2023-04-25T06:40:10;2.44;;;2.18;;
69837;SDS011;57135;51.992;4.476;2023-04-25T06:42:36;2.47;;;2.22;;
69837;SDS011;57135;51.992;4.476;2023-04-25T06:45:02;2.68;;;2.40;;
69837;SDS011;57135;51.992;4.476;2023-04-25T06:47:27;2.61;;;2.34;;
69837;SDS011;57135;51.992;4.476;2023-04-25T06:49:53;2.68;;;2.39;;
69837;SDS011;57135;51.992;4.476;2023-04-25T06:52:18;2.79;;;2.50;;
69837;SDS011;57135;51.992;4.476;2023-04-25T06:54:44;3.04;;;2.71;;
69837;SDS011;57135;51.992;4.476;2023-04-25T06:57:10;2.72;;;2.43;;
69837;SDS011;57135;51.992;4.476;2023-04-25T06:59:35;2.85;;;2.54;;
69837;SDS011;57135;51.992;4.476;2023-04-25T07:02:01;3.01;;;2.72;;
69837;SDS011;57135;51.992;4.476;2023-04-25T07:04:26;3.05;;;2.77;;
69837;SDS011;57135;51.992;4.476;2023-04-25T07:06:52;2.90;;;2.62;;
69837;SDS011;57135;51.992;4.476;2023-04-25T07:09:17;2.71;;;2.42;;
69837;SDS011;57135;51.992;4.476;2023-04-25T07:11:43;3.36;;;2.88;;
69837;SDS011;57135;51.992;4.476;2023-04-25T07:14:08;3.44;;;2.93;;
69837;SDS011;57135;51.992;4.476;2023-04-25T07:16:34;3.23;;;2.76;;
69837;SDS011;57135;51.992;4.476;2023-04-25T07:18:59;3.22;;;2.70;;
69837;SDS011;57135;51.992;4.476;2023-04-25T07:21:25;3.21;;;2.66;;
69837;SDS011;57135;51.992;4.476;2023-04-25T07:23:51;3.33;;;2.73;;
69837;SDS011;57135;51.992;4.476;2023-04-25T07:26:16;3.56;;;2.88;;
69837;SDS011;57135;51.992;4.476;2023-04-25T07:28:42;3.49;;;2.80;;
69837;SDS011;57135;51.992;4.476;2023-04-25T07:31:08;3.28;;;2.63;;
69837;SDS011;57135;51.992;4.476;2023-04-25T07:33:34;3.39;;;2.64;;
69837;SDS011;57135;51.992;4.476;2023-04-25T07:35:59;3.78;;;2.85;;
69837;SDS011;57135;51.992;4.476;2023-04-25T07:38:25;3.36;;;2.54;;
69837;SDS011;57135;51.992;4.476;2023-04-25T07:40:51;3.42;;;2.55;;
69837;SDS011;57135;51.992;4.476;2023-04-25T07:43:16;4.19;;;3.11;;
69837;SDS011;57135;51.992;4.476;2023-04-25T07:45:42;4.17;;;2.96;;
69837;SDS011;57135;51.992;4.476;2023-04-25T07:48:08;4.50;;;3.09;;
69837;SDS011;57135;51.992;4.476;2023-04-25T07:50:34;4.52;;;3.03;;
69837;SDS011;57135;51.992;4.476;2023-04-25T07:52:59;4.47;;;2.96;;
69837;SDS011;57135;51.992;4.476;2023-04-25T07:55:25;4.39;;;2.91;;
69837;SDS011;57135;51.992;4.476;2023-04-25T07:57:50;4.33;;;2.86;;
69837;SDS011;57135;51.992;4.476;2023-04-25T08:00:16;4.74;;;3.09;;
69837;SDS011;57135;51.992;4.476;2023-04-25T08:02:42;4.29;;;2.79;;
69837;SDS011;57135;51.992;4.476;2023-04-25T08:05:07;4.80;;;3.13;;
69837;SDS011;57135;51.992;4.476;2023-04-25T08:07:36;5.13;;;3.39;;
69837;SDS011;57135;51.992;4.476;2023-04-25T08:10:02;4.45;;;2.93;;
69837;SDS011;57135;51.992;4.476;2023-04-25T08:12:28;4.58;;;3.08;;
69837;SDS011;57135;51.992;4.476;2023-04-25T08:14:54;4.43;;;2.97;;
69837;SDS011;57135;51.992;4.476;2023-04-25T08:17:19;4.93;;;3.30;;
69837;SDS011;57135;51.992;4.476;2023-04-25T08:19:45;4.66;;;3.08;;
69837;SDS011;57135;51.992;4.476;2023-04-25T08:22:10;5.03;;;3.34;;
69837;SDS011;57135;51.992;4.476;2023-04-25T08:24:36;5.29;;;3.50;;
69837;SDS011;57135;51.992;4.476;2023-04-25T08:27:01;4.71;;;3.15;;
69837;SDS011;57135;51.992;4.476;2023-04-25T08:29:27;4.78;;;3.24;;
69837;SDS011;57135;51.992;4.476;2023-04-25T08:31:53;4.64;;;3.14;;
69837;SDS011;57135;51.992;4.476;2023-04-25T08:34:19;4.86;;;3.32;;
69837;SDS011;57135;51.992;4.476;2023-04-25T08:36:45;4.61;;;3.16;;
69837;SDS011;57135;51.992;4.476;2023-04-25T08:39:11;4.96;;;3.32;;
69837;SDS011;57135;51.992;4.476;2023-04-25T08:41:37;4.10;;;2.78;;
69837;SDS011;57135;51.992;4.476;2023-04-25T08:44:02;4.50;;;3.15;;
69837;SDS011;57135;51.992;4.476;2023-04-25T08:46:28;3.88;;;2.71;;
69837;SDS011;57135;51.992;4.476;2023-04-25T08:48:57;4.63;;;3.17;;
69837;SDS011;57135;51.992;4.476;2023-04-25T08:51:26;4.46;;;3.09;;
69837;SDS011;57135;51.992;4.476;2023-04-25T08:53:53;4.95;;;3.37;;
69837;SDS011;57135;51.992;4.476;2023-04-25T08:56:19;4.32;;;2.94;;
69837;SDS011;57135;51.992;4.476;2023-04-25T08:58:50;4.47;;;3.04;;
69837;SDS011;57135;51.992;4.476;2023-04-25T09:01:16;4.52;;;3.04;;
69837;SDS011;57135;51.992;4.476;2023-04-25T09:03:43;3.88;;;2.64;;
69837;SDS011;57135;51.992;4.476;2023-04-25T09:06:10;4.52;;;3.06;;
69837;SDS011;57135;51.992;4.476;2023-04-25T09:08:36;4.36;;;2.97;;
69837;SDS011;57135;51.992;4.476;2023-04-25T09:11:02;4.01;;;2.73;;
69837;SDS011;57135;51.992;4.476;2023-04-25T09:13:28;3.63;;;2.46;;
69837;SDS011;57135;51.992;4.476;2023-04-25T09:15:55;3.39;;;2.28;;
69837;SDS011;57135;51.992;4.476;2023-04-25T09:18:29;3.25;;;2.26;;
69837;SDS011;57135;51.992;4.476;2023-04-25T09:21:06;3.39;;;2.35;;
69837;SDS011;57135;51.992;4.476;2023-04-25T09:23:40;3.56;;;2.45;;
69837;SDS011;57135;51.992;4.476;2023-04-25T09:26:10;3.59;;;2.53;;
69837;SDS011;57135;51.992;4.476;2023-04-25T09:28:40;3.02;;;2.10;;
69837;SDS011;57135;51.992;4.476;2023-04-25T09:31:09;3.71;;;2.54;;
69837;SDS011;57135;51.992;4.476;2023-04-25T09:33:35;3.97;;;2.68;;
69837;SDS011;57135;51.992;4.476;2023-04-25T09:36:02;3.93;;;2.67;;
69837;SDS011;57135;51.992;4.476;2023-04-25T09:38:30;3.86;;;2.64;;
69837;SDS011;57135;51.992;4.476;2023-04-25T09:40:57;3.76;;;2.60;;
69837;SDS011;57135;51.992;4.476;2023-04-25T09:43:23;3.32;;;2.27;;
69837;SDS011;57135;51.992;4.476;2023-04-25T09:45:50;3.59;;;2.44;;
69837;SDS011;57135;51.992;4.476;2023-04-25T09:48:20;3.93;;;2.66;;
69837;SDS011;57135;51.992;4.476;2023-04-25T09:51:03;4.05;;;2.74;;
69837;SDS011;57135;51.992;4.476;2023-04-25T09:53:37;3.79;;;2.58;;
69837;SDS011;57135;51.992;4.476;2023-04-25T09:56:08;3.89;;;2.66;;
69837;SDS011;57135;51.992;4.476;2023-04-25T09:58:42;3.93;;;2.71;;
69837;SDS011;57135;51.992;4.476;2023-04-25T10:01:08;4.24;;;3.00;;
69837;SDS011;57135;51.992;4.476;2023-04-25T10:03:37;4.97;;;3.60;;
69837;SDS011;57135;51.992;4.476;2023-04-25T10:06:08;4.00;;;2.84;;
69837;SDS011;57135;51.992;4.476;2023-04-25T10:08:37;4.75;;;3.30;;
69837;SDS011;57135;51.992;4.476;2023-04-25T10:11:04;4.97;;;3.46;;
69837;SDS011;57135;51.992;4.476;2023-04-25T10:13:32;4.41;;;3.12;;
69837;SDS011;57135;51.992;4.476;2023-04-25T10:15:58;5.67;;;4.02;;
69837;SDS011;57135;51.992;4.476;2023-04-25T10:18:26;4.92;;;3.44;;
69837;SDS011;57135;51.992;4.476;2023-04-25T10:20:56;4.95;;;3.44;;
69837;SDS011;57135;51.992;4.476;2023-04-25T10:23:23;5.98;;;4.13;;
69837;SDS011;57135;51.992;4.476;2023-04-25T10:25:52;4.49;;;3.12;;
69837;SDS011;57135;51.992;4.476;2023-04-25T10:28:18;5.36;;;3.71;;
69837;SDS011;57135;51.992;4.476;2023-04-25T10:33:33;4.56;;;3.17;;
69837;SDS011;57135;51.992;4.476;2023-04-25T10:36:13;5.26;;;3.58;;
69837;SDS011;57135;51.992;4.476;2023-04-25T10:38:49;5.95;;;4.05;;
69837;SDS011;57135;51.992;4.476;2023-04-25T10:41:17;5.05;;;3.51;;
69837;SDS011;57135;51.992;4.476;2023-04-25T10:43:47;4.15;;;2.95;;
69837;SDS011;57135;51.992;4.476;2023-04-25T10:46:24;4.03;;;2.85;;
69837;SDS011;57135;51.992;4.476;2023-04-25T10:48:55;4.58;;;3.16;;
69837;SDS011;57135;51.992;4.476;2023-04-25T10:51:22;3.82;;;2.62;;
69837;SDS011;57135;51.992;4.476;2023-04-25T10:56:29;3.98;;;2.70;;
69837;SDS011;57135;51.992;4.476;2023-04-25T10:59:30;4.38;;;2.96;;
69837;SDS011;57135;51.992;4.476;2023-04-25T11:01:51;4.11;;;2.78;;
69837;SDS011;57135;51.992;4.476;2023-04-25T11:04:22;4.60;;;3.19;;
69837;SDS011;57135;51.992;4.476;2023-04-25T11:09:36;4.60;;;3.16;;
69837;SDS011;57135;51.992;4.476;2023-04-25T11:12:04;4.25;;;2.88;;
69837;SDS011;57135;51.992;4.476;2023-04-25T11:14:30;4.90;;;3.31;;
69837;SDS011;57135;51.992;4.476;2023-04-25T11:16:56;4.50;;;3.03;;
69837;SDS011;57135;51.992;4.476;2023-04-25T11:19:23;4.42;;;2.98;;
69837;SDS011;57135;51.992;4.476;2023-04-25T11:21:49;3.70;;;2.54;;
69837;SDS011;57135;51.992;4.476;2023-04-25T11:24:18;3.60;;;2.45;;
69837;SDS011;57135;51.992;4.476;2023-04-25T11:26:46;3.72;;;2.56;;
69837;SDS011;57135;51.992;4.476;2023-04-25T11:29:13;3.63;;;2.51;;
69837;SDS011;57135;51.992;4.476;2023-04-25T11:31:39;3.46;;;2.43;;
69837;SDS011;57135;51.992;4.476;2023-04-25T11:34:08;3.42;;;2.42;;
69837;SDS011;57135;51.992;4.476;2023-04-25T11:36:34;3.67;;;2.58;;
69837;SDS011;57135;51.992;4.476;2023-04-25T11:39:03;3.90;;;2.75;;
69837;SDS011;57135;51.992;4.476;2023-04-25T11:41:29;4.03;;;2.90;;
69837;SDS011;57135;51.992;4.476;2023-04-25T11:43:55;3.60;;;2.62;;
69837;SDS011;57135;51.992;4.476;2023-04-25T11:46:21;3.50;;;2.54;;
69837;SDS011;57135;51.992;4.476;2023-04-25T11:48:46;4.01;;;2.83;;
69837;SDS011;57135;51.992;4.476;2023-04-25T11:51:12;4.13;;;2.88;;
69837;SDS011;57135;51.992;4.476;2023-04-25T11:53:40;4.27;;;2.91;;
69837;SDS011;57135;51.992;4.476;2023-04-25T11:56:11;4.63;;;3.18;;
69837;SDS011;57135;51.992;4.476;2023-04-25T11:58:56;3.95;;;2.72;;
69837;SDS011;57135;51.992;4.476;2023-04-25T12:01:29;3.95;;;2.80;;
69837;SDS011;57135;51.992;4.476;2023-04-25T12:03:55;4.06;;;2.95;;
69837;SDS011;57135;51.992;4.476;2023-04-25T12:06:25;3.94;;;2.91;;
69837;SDS011;57135;51.992;4.476;2023-04-25T12:08:59;3.25;;;2.45;;
69837;SDS011;57135;51.992;4.476;2023-04-25T12:11:32;3.60;;;2.63;;
69837;SDS011;57135;51.992;4.476;2023-04-25T12:14:03;3.61;;;2.58;;
69837;SDS011;57135;51.992;4.476;2023-04-25T12:16:39;3.58;;;2.61;;
69837;SDS011;57135;51.992;4.476;2023-04-25T12:19:05;3.60;;;2.58;;
69837;SDS011;57135;51.992;4.476;2023-04-25T12:21:32;3.50;;;2.56;;
69837;SDS011;57135;51.992;4.476;2023-04-25T12:24:08;4.16;;;3.15;;
69837;SDS011;57135;51.992;4.476;2023-04-25T12:27:14;3.24;;;2.47;;
69837;SDS011;57135;51.992;4.476;2023-04-25T12:29:33;3.17;;;2.44;;
69837;SDS011;57135;51.992;4.476;2023-04-25T12:31:59;3.13;;;2.33;;
69837;SDS011;57135;51.992;4.476;2023-04-25T12:34:26;3.46;;;2.52;;
69837;SDS011;57135;51.992;4.476;2023-04-25T12:36:52;3.89;;;2.81;;
69837;SDS011;57135;51.992;4.476;2023-04-25T12:39:22;4.22;;;2.99;;
69837;SDS011;57135;51.992;4.476;2023-04-25T12:41:49;3.99;;;2.82;;
69837;SDS011;57135;51.992;4.476;2023-04-25T12:44:16;3.73;;;2.67;;
69837;SDS011;57135;51.992;4.476;2023-04-25T12:46:42;3.73;;;2.71;;
69837;SDS011;57135;51.992;4.476;2023-04-25T12:49:07;4.01;;;2.87;;
69837;SDS011;57135;51.992;4.476;2023-04-25T12:51:34;3.91;;;2.81;;
69837;SDS011;57135;51.992;4.476;2023-04-25T12:54:00;3.52;;;2.57;;
69837;SDS011;57135;51.992;4.476;2023-04-25T12:56:26;3.27;;;2.39;;
69837;SDS011;57135;51.992;4.476;2023-04-25T12:58:52;3.77;;;2.77;;
69837;SDS011;57135;51.992;4.476;2023-04-25T13:01:18;3.22;;;2.43;;
69837;SDS011;57135;51.992;4.476;2023-04-25T13:03:45;3.36;;;2.55;;
69837;SDS011;57135;51.992;4.476;2023-04-25T13:06:10;3.48;;;2.61;;
69837;SDS011;57135;51.992;4.476;2023-04-25T13:08:36;3.30;;;2.51;;
69837;SDS011;57135;51.992;4.476;2023-04-25T13:11:03;3.07;;;2.32;;
69837;SDS011;57135;51.992;4.476;2023-04-25T13:13:29;3.54;;;2.70;;
69837;SDS011;57135;51.992;4.476;2023-04-25T13:15:54;3.27;;;2.53;;
69837;SDS011;57135;51.992;4.476;2023-04-25T13:18:20;3.18;;;2.50;;
69837;SDS011;57135;51.992;4.476;2023-04-25T13:20:46;3.39;;;2.64;;
69837;SDS011;57135;51.992;4.476;2023-04-25T13:23:11;4.11;;;3.06;;
69837;SDS011;57135;51.992;4.476;2023-04-25T13:25:37;3.29;;;2.46;;
69837;SDS011;57135;51.992;4.476;2023-04-25T13:28:02;3.44;;;2.60;;
69837;SDS011;57135;51.992;4.476;2023-04-25T13:30:28;3.08;;;2.38;;
69837;SDS011;57135;51.992;4.476;2023-04-25T13:32:54;3.26;;;2.50;;
69837;SDS011;57135;51.992;4.476;2023-04-25T13:35:22;3.25;;;2.44;;
69837;SDS011;57135;51.992;4.476;2023-04-25T13:37:47;3.98;;;2.95;;
69837;SDS011;57135;51.992;4.476;2023-04-25T13:40:13;4.81;;;3.48;;
69837;SDS011;57135;51.992;4.476;2023-04-25T13:42:38;4.41;;;3.23;;
69837;SDS011;57135;51.992;4.476;2023-04-25T13:45:04;4.16;;;3.05;;
69837;SDS011;57135;51.992;4.476;2023-04-25T13:47:30;3.78;;;2.82;;
69837;SDS011;57135;51.992;4.476;2023-04-25T13:49:56;3.63;;;2.71;;
69837;SDS011;57135;51.992;4.476;2023-04-25T13:52:22;3.88;;;2.94;;
69837;SDS011;57135;51.992;4.476;2023-04-25T13:54:50;3.72;;;2.83;;
69837;SDS011;57135;51.992;4.476;2023-04-25T13:57:16;3.77;;;2.86;;
69837;SDS011;57135;51.992;4.476;2023-04-25T13:59:42;3.34;;;2.51;;
69837;SDS011;57135;51.992;4.476;2023-04-25T14:02:08;3.19;;;2.45;;
69837;SDS011;57135;51.992;4.476;2023-04-25T14:04:34;3.42;;;2.61;;
69837;SDS011;57135;51.992;4.476;2023-04-25T14:06:59;3.69;;;2.81;;
69837;SDS011;57135;51.992;4.476;2023-04-25T14:09:27;3.90;;;2.98;;
69837;SDS011;57135;51.992;4.476;2023-04-25T14:11:53;3.54;;;2.72;;
69837;SDS011;57135;51.992;4.476;2023-04-25T14:14:19;3.16;;;2.49;;
69837;SDS011;57135;51.992;4.476;2023-04-25T14:16:45;3.05;;;2.44;;
69837;SDS011;57135;51.992;4.476;2023-04-25T14:19:13;3.10;;;2.49;;
69837;SDS011;57135;51.992;4.476;2023-04-25T14:21:39;2.94;;;2.36;;
69837;SDS011;57135;51.992;4.476;2023-04-25T14:24:04;2.86;;;2.32;;
69837;SDS011;57135;51.992;4.476;2023-04-25T14:26:30;2.83;;;2.29;;
69837;SDS011;57135;51.992;4.476;2023-04-25T14:28:56;3.10;;;2.45;;
69837;SDS011;57135;51.992;4.476;2023-04-25T14:31:21;2.95;;;2.34;;
69837;SDS011;57135;51.992;4.476;2023-04-25T14:33:47;2.86;;;2.25;;
69837;SDS011;57135;51.992;4.476;2023-04-25T14:36:12;2.78;;;2.19;;
69837;SDS011;57135;51.992;4.476;2023-04-25T14:38:39;2.75;;;2.20;;
69837;SDS011;57135;51.992;4.476;2023-04-25T14:41:04;2.70;;;2.20;;
69837;SDS011;57135;51.992;4.476;2023-04-25T14:43:30;2.79;;;2.23;;
69837;SDS011;57135;51.992;4.476;2023-04-25T14:45:56;2.53;;;2.07;;
69837;SDS011;57135;51.992;4.476;2023-04-25T14:48:21;3.26;;;2.66;;
69837;SDS011;57135;51.992;4.476;2023-04-25T14:50:48;2.66;;;2.21;;
69837;SDS011;57135;51.992;4.476;2023-04-25T14:53:14;2.55;;;2.18;;